sensor_id;sensor_type;location;lat;lon;timestamp;P1;durP1;ratioP1;P2;durP2;ratioP2
4867;SDS011;2448;48.086;10.862;2023-06-26T00:00:40;12.37;;;5.87;;
4867;SDS011;2448;48.086;10.862;2023-06-26T00:03:05;9.10;;;5.20;;
4867;SDS011;2448;48.086;10.862;2023-06-26T00:05:30;10.37;;;6.00;;
4867;SDS011;2448;48.086;10.862;2023-06-26T00:07:56;8.90;;;6.00;;
4867;SDS011;2448;48.086;10.862;2023-06-26T00:10:22;10.40;;;6.17;;
4867;SDS011;2448;48.086;10.862;2023-06-26T00:12:47;7.80;;;5.20;;
4867;SDS011;2448;48.086;10.862;2023-06-26T00:15:12;7.23;;;5.13;;
4867;SDS011;2448;48.086;10.862;2023-06-26T00:17:38;20.00;;;5.40;;
4867;SDS011;2448;48.086;10.862;2023-06-26T00:20:03;9.23;;;6.13;;
4867;SDS011;2448;48.086;10.862;2023-06-26T00:22:31;9.90;;;5.47;;
4867;SDS011;2448;48.086;10.862;2023-06-26T00:24:57;8.40;;;5.40;;
4867;SDS011;2448;48.086;10.862;2023-06-26T00:27:22;10.77;;;6.40;;
4867;SDS011;2448;48.086;10.862;2023-06-26T00:29:48;15.00;;;5.87;;
4867;SDS011;2448;48.086;10.862;2023-06-26T00:32:13;12.80;;;5.70;;
4867;SDS011;2448;48.086;10.862;2023-06-26T00:34:38;7.50;;;5.60;;
4867;SDS011;2448;48.086;10.862;2023-06-26T00:37:04;10.73;;;5.30;;
4867;SDS011;2448;48.086;10.862;2023-06-26T00:39:30;9.00;;;5.53;;
4867;SDS011;2448;48.086;10.862;2023-06-26T00:41:55;9.27;;;5.63;;
4867;SDS011;2448;48.086;10.862;2023-06-26T00:44:20;6.60;;;5.40;;
4867;SDS011;2448;48.086;10.862;2023-06-26T00:46:46;12.13;;;5.70;;
4867;SDS011;2448;48.086;10.862;2023-06-26T00:49:11;9.07;;;5.20;;
4867;SDS011;2448;48.086;10.862;2023-06-26T00:51:37;18.93;;;6.17;;
4867;SDS011;2448;48.086;10.862;2023-06-26T00:54:03;9.93;;;6.07;;
4867;SDS011;2448;48.086;10.862;2023-06-26T00:56:29;9.80;;;4.93;;
4867;SDS011;2448;48.086;10.862;2023-06-26T00:58:56;11.17;;;5.77;;
4867;SDS011;2448;48.086;10.862;2023-06-26T01:01:24;9.40;;;5.83;;
4867;SDS011;2448;48.086;10.862;2023-06-26T01:03:51;11.00;;;5.60;;
4867;SDS011;2448;48.086;10.862;2023-06-26T01:06:17;9.10;;;5.27;;
4867;SDS011;2448;48.086;10.862;2023-06-26T01:08:42;8.90;;;5.10;;
4867;SDS011;2448;48.086;10.862;2023-06-26T01:11:09;10.17;;;5.53;;
4867;SDS011;2448;48.086;10.862;2023-06-26T01:13:35;10.87;;;5.97;;
4867;SDS011;2448;48.086;10.862;2023-06-26T01:16:01;8.77;;;5.30;;
4867;SDS011;2448;48.086;10.862;2023-06-26T01:18:27;8.30;;;5.10;;
4867;SDS011;2448;48.086;10.862;2023-06-26T01:20:53;10.50;;;5.40;;
4867;SDS011;2448;48.086;10.862;2023-06-26T01:28:12;12.87;;;5.77;;
4867;SDS011;2448;48.086;10.862;2023-06-26T01:30:41;8.43;;;5.60;;
4867;SDS011;2448;48.086;10.862;2023-06-26T01:33:07;9.43;;;5.47;;
4867;SDS011;2448;48.086;10.862;2023-06-26T01:35:33;8.30;;;5.50;;
4867;SDS011;2448;48.086;10.862;2023-06-26T01:38:15;9.87;;;5.47;;
4867;SDS011;2448;48.086;10.862;2023-06-26T01:40:40;18.43;;;5.40;;
4867;SDS011;2448;48.086;10.862;2023-06-26T01:43:07;6.20;;;4.77;;
4867;SDS011;2448;48.086;10.862;2023-06-26T01:45:34;9.37;;;4.97;;
4867;SDS011;2448;48.086;10.862;2023-06-26T01:47:59;8.20;;;5.63;;
4867;SDS011;2448;48.086;10.862;2023-06-26T01:50:27;9.00;;;5.47;;
4867;SDS011;2448;48.086;10.862;2023-06-26T01:58:33;8.50;;;4.70;;
4867;SDS011;2448;48.086;10.862;2023-06-26T02:00:59;7.60;;;5.60;;
4867;SDS011;2448;48.086;10.862;2023-06-26T02:03:24;10.83;;;5.40;;
4867;SDS011;2448;48.086;10.862;2023-06-26T02:05:50;10.20;;;5.70;;
4867;SDS011;2448;48.086;10.862;2023-06-26T02:08:16;9.47;;;5.40;;
4867;SDS011;2448;48.086;10.862;2023-06-26T02:10:47;7.87;;;5.33;;
4867;SDS011;2448;48.086;10.862;2023-06-26T02:13:15;10.07;;;5.50;;
4867;SDS011;2448;48.086;10.862;2023-06-26T02:15:40;10.70;;;5.03;;
4867;SDS011;2448;48.086;10.862;2023-06-26T02:18:07;10.53;;;6.07;;
4867;SDS011;2448;48.086;10.862;2023-06-26T02:20:32;7.20;;;5.10;;
4867;SDS011;2448;48.086;10.862;2023-06-26T02:22:59;10.00;;;5.60;;
4867;SDS011;2448;48.086;10.862;2023-06-26T02:25:24;9.20;;;5.53;;
4867;SDS011;2448;48.086;10.862;2023-06-26T02:27:51;8.90;;;4.93;;
4867;SDS011;2448;48.086;10.862;2023-06-26T02:30:18;11.83;;;5.87;;
4867;SDS011;2448;48.086;10.862;2023-06-26T02:32:44;8.57;;;5.37;;
4867;SDS011;2448;48.086;10.862;2023-06-26T02:35:10;11.37;;;5.53;;
4867;SDS011;2448;48.086;10.862;2023-06-26T02:37:40;10.83;;;5.70;;
4867;SDS011;2448;48.086;10.862;2023-06-26T02:40:06;10.60;;;5.90;;
4867;SDS011;2448;48.086;10.862;2023-06-26T02:42:34;11.73;;;5.73;;
4867;SDS011;2448;48.086;10.862;2023-06-26T02:44:59;7.23;;;5.37;;
4867;SDS011;2448;48.086;10.862;2023-06-26T02:47:25;10.30;;;5.80;;
4867;SDS011;2448;48.086;10.862;2023-06-26T02:49:51;10.83;;;5.87;;
4867;SDS011;2448;48.086;10.862;2023-06-26T02:52:16;8.50;;;5.00;;
4867;SDS011;2448;48.086;10.862;2023-06-26T02:54:42;13.57;;;5.80;;
4867;SDS011;2448;48.086;10.862;2023-06-26T02:57:08;12.57;;;6.10;;
4867;SDS011;2448;48.086;10.862;2023-06-26T02:59:34;9.80;;;5.33;;
4867;SDS011;2448;48.086;10.862;2023-06-26T03:01:59;9.80;;;5.70;;
4867;SDS011;2448;48.086;10.862;2023-06-26T03:04:30;8.30;;;5.03;;
4867;SDS011;2448;48.086;10.862;2023-06-26T03:06:56;15.00;;;6.00;;
4867;SDS011;2448;48.086;10.862;2023-06-26T03:09:21;10.50;;;6.20;;
4867;SDS011;2448;48.086;10.862;2023-06-26T03:11:48;11.77;;;6.07;;
4867;SDS011;2448;48.086;10.862;2023-06-26T03:14:13;11.13;;;6.07;;
4867;SDS011;2448;48.086;10.862;2023-06-26T03:16:39;8.73;;;5.40;;
4867;SDS011;2448;48.086;10.862;2023-06-26T03:19:05;7.00;;;5.07;;
4867;SDS011;2448;48.086;10.862;2023-06-26T03:21:41;8.50;;;5.50;;
4867;SDS011;2448;48.086;10.862;2023-06-26T03:24:07;8.07;;;5.20;;
4867;SDS011;2448;48.086;10.862;2023-06-26T03:26:32;9.47;;;5.53;;
4867;SDS011;2448;48.086;10.862;2023-06-26T03:28:59;8.80;;;5.23;;
4867;SDS011;2448;48.086;10.862;2023-06-26T03:31:24;7.83;;;5.70;;
4867;SDS011;2448;48.086;10.862;2023-06-26T03:33:49;10.70;;;5.80;;
4867;SDS011;2448;48.086;10.862;2023-06-26T03:36:15;10.70;;;5.77;;
4867;SDS011;2448;48.086;10.862;2023-06-26T03:38:40;10.90;;;6.20;;
4867;SDS011;2448;48.086;10.862;2023-06-26T03:41:06;10.07;;;5.20;;
4867;SDS011;2448;48.086;10.862;2023-06-26T03:43:31;14.23;;;5.70;;
4867;SDS011;2448;48.086;10.862;2023-06-26T03:46:12;7.50;;;4.97;;
4867;SDS011;2448;48.086;10.862;2023-06-26T03:48:37;8.83;;;6.00;;
4867;SDS011;2448;48.086;10.862;2023-06-26T03:51:03;11.20;;;6.30;;
4867;SDS011;2448;48.086;10.862;2023-06-26T03:53:29;8.30;;;5.10;;
4867;SDS011;2448;48.086;10.862;2023-06-26T03:55:54;7.83;;;4.90;;
4867;SDS011;2448;48.086;10.862;2023-06-26T03:58:21;12.47;;;6.53;;
4867;SDS011;2448;48.086;10.862;2023-06-26T04:00:47;14.50;;;6.13;;
4867;SDS011;2448;48.086;10.862;2023-06-26T04:03:12;8.70;;;5.40;;
4867;SDS011;2448;48.086;10.862;2023-06-26T04:05:40;9.60;;;5.20;;
4867;SDS011;2448;48.086;10.862;2023-06-26T04:08:06;14.00;;;5.30;;
4867;SDS011;2448;48.086;10.862;2023-06-26T04:10:31;8.30;;;4.93;;
4867;SDS011;2448;48.086;10.862;2023-06-26T04:12:56;8.33;;;5.47;;
4867;SDS011;2448;48.086;10.862;2023-06-26T04:15:22;9.87;;;6.37;;
4867;SDS011;2448;48.086;10.862;2023-06-26T04:17:47;10.37;;;5.53;;
4867;SDS011;2448;48.086;10.862;2023-06-26T04:20:12;7.90;;;5.40;;
4867;SDS011;2448;48.086;10.862;2023-06-26T04:22:38;7.10;;;5.30;;
4867;SDS011;2448;48.086;10.862;2023-06-26T04:25:03;8.10;;;5.37;;
4867;SDS011;2448;48.086;10.862;2023-06-26T04:27:29;8.80;;;5.70;;
4867;SDS011;2448;48.086;10.862;2023-06-26T04:29:55;11.03;;;6.57;;
4867;SDS011;2448;48.086;10.862;2023-06-26T04:32:20;10.90;;;5.20;;
4867;SDS011;2448;48.086;10.862;2023-06-26T04:34:46;11.73;;;5.50;;
4867;SDS011;2448;48.086;10.862;2023-06-26T04:37:13;7.77;;;5.50;;
4867;SDS011;2448;48.086;10.862;2023-06-26T04:39:41;12.60;;;6.17;;
4867;SDS011;2448;48.086;10.862;2023-06-26T04:42:06;6.77;;;5.10;;
4867;SDS011;2448;48.086;10.862;2023-06-26T04:44:32;7.43;;;5.13;;
4867;SDS011;2448;48.086;10.862;2023-06-26T04:46:58;9.43;;;5.47;;
4867;SDS011;2448;48.086;10.862;2023-06-26T04:49:23;12.57;;;6.23;;
4867;SDS011;2448;48.086;10.862;2023-06-26T04:51:48;9.90;;;5.50;;
4867;SDS011;2448;48.086;10.862;2023-06-26T04:54:16;8.60;;;5.60;;
4867;SDS011;2448;48.086;10.862;2023-06-26T04:56:41;10.40;;;5.63;;
4867;SDS011;2448;48.086;10.862;2023-06-26T04:59:06;6.40;;;5.03;;
4867;SDS011;2448;48.086;10.862;2023-06-26T05:01:32;8.43;;;5.30;;
4867;SDS011;2448;48.086;10.862;2023-06-26T05:03:57;14.60;;;6.67;;
4867;SDS011;2448;48.086;10.862;2023-06-26T05:06:23;7.87;;;5.17;;
4867;SDS011;2448;48.086;10.862;2023-06-26T05:08:48;11.60;;;5.50;;
4867;SDS011;2448;48.086;10.862;2023-06-26T05:11:14;10.03;;;5.70;;
4867;SDS011;2448;48.086;10.862;2023-06-26T05:13:39;8.37;;;5.60;;
4867;SDS011;2448;48.086;10.862;2023-06-26T05:16:05;10.17;;;6.40;;
4867;SDS011;2448;48.086;10.862;2023-06-26T05:18:30;9.37;;;6.00;;
4867;SDS011;2448;48.086;10.862;2023-06-26T05:20:56;10.90;;;6.23;;
4867;SDS011;2448;48.086;10.862;2023-06-26T05:23:21;10.13;;;5.97;;
4867;SDS011;2448;48.086;10.862;2023-06-26T05:25:47;8.47;;;5.57;;
4867;SDS011;2448;48.086;10.862;2023-06-26T05:28:13;10.80;;;5.77;;
4867;SDS011;2448;48.086;10.862;2023-06-26T05:30:40;7.80;;;5.77;;
4867;SDS011;2448;48.086;10.862;2023-06-26T05:33:06;8.73;;;5.90;;
4867;SDS011;2448;48.086;10.862;2023-06-26T05:35:31;7.27;;;5.07;;
4867;SDS011;2448;48.086;10.862;2023-06-26T05:37:57;8.40;;;5.90;;
4867;SDS011;2448;48.086;10.862;2023-06-26T05:40:23;8.90;;;5.53;;
4867;SDS011;2448;48.086;10.862;2023-06-26T05:42:48;9.90;;;4.73;;
4867;SDS011;2448;48.086;10.862;2023-06-26T05:45:14;8.73;;;5.37;;
4867;SDS011;2448;48.086;10.862;2023-06-26T05:47:39;7.80;;;4.83;;
4867;SDS011;2448;48.086;10.862;2023-06-26T05:50:06;6.00;;;4.90;;
4867;SDS011;2448;48.086;10.862;2023-06-26T05:52:32;4.67;;;4.07;;
4867;SDS011;2448;48.086;10.862;2023-06-26T05:54:57;6.63;;;4.80;;
4867;SDS011;2448;48.086;10.862;2023-06-26T05:57:27;6.67;;;4.93;;
4867;SDS011;2448;48.086;10.862;2023-06-26T05:59:53;7.00;;;4.80;;
4867;SDS011;2448;48.086;10.862;2023-06-26T06:02:19;6.73;;;5.00;;
4867;SDS011;2448;48.086;10.862;2023-06-26T06:04:44;16.00;;;5.00;;
4867;SDS011;2448;48.086;10.862;2023-06-26T06:07:09;9.20;;;4.60;;
4867;SDS011;2448;48.086;10.862;2023-06-26T06:09:35;6.07;;;4.30;;
4867;SDS011;2448;48.086;10.862;2023-06-26T06:12:00;6.67;;;4.70;;
4867;SDS011;2448;48.086;10.862;2023-06-26T06:14:27;6.87;;;4.63;;
4867;SDS011;2448;48.086;10.862;2023-06-26T06:16:52;7.23;;;4.50;;
4867;SDS011;2448;48.086;10.862;2023-06-26T06:19:17;5.60;;;4.27;;
4867;SDS011;2448;48.086;10.862;2023-06-26T06:21:43;5.23;;;3.93;;
4867;SDS011;2448;48.086;10.862;2023-06-26T06:24:08;22.33;;;5.00;;
4867;SDS011;2448;48.086;10.862;2023-06-26T06:26:34;4.87;;;3.90;;
4867;SDS011;2448;48.086;10.862;2023-06-26T06:29:00;4.60;;;4.00;;
4867;SDS011;2448;48.086;10.862;2023-06-26T06:31:25;13.50;;;4.80;;
4867;SDS011;2448;48.086;10.862;2023-06-26T06:33:54;5.80;;;4.57;;
4867;SDS011;2448;48.086;10.862;2023-06-26T06:36:19;6.93;;;4.03;;
4867;SDS011;2448;48.086;10.862;2023-06-26T06:38:44;4.70;;;4.20;;
4867;SDS011;2448;48.086;10.862;2023-06-26T06:41:10;5.27;;;4.50;;
4867;SDS011;2448;48.086;10.862;2023-06-26T06:43:35;4.80;;;3.90;;
4867;SDS011;2448;48.086;10.862;2023-06-26T06:46:01;5.90;;;4.60;;
4867;SDS011;2448;48.086;10.862;2023-06-26T06:48:26;5.90;;;4.17;;
4867;SDS011;2448;48.086;10.862;2023-06-26T06:50:52;4.97;;;4.47;;
4867;SDS011;2448;48.086;10.862;2023-06-26T06:53:18;5.80;;;4.23;;
4867;SDS011;2448;48.086;10.862;2023-06-26T06:55:45;5.97;;;4.33;;
4867;SDS011;2448;48.086;10.862;2023-06-26T06:58:11;5.50;;;4.07;;
4867;SDS011;2448;48.086;10.862;2023-06-26T07:00:36;5.50;;;3.97;;
4867;SDS011;2448;48.086;10.862;2023-06-26T07:03:02;6.73;;;4.50;;
4867;SDS011;2448;48.086;10.862;2023-06-26T07:05:27;4.80;;;4.30;;
4867;SDS011;2448;48.086;10.862;2023-06-26T07:07:52;4.17;;;3.80;;
4867;SDS011;2448;48.086;10.862;2023-06-26T07:10:18;3.90;;;3.50;;
4867;SDS011;2448;48.086;10.862;2023-06-26T07:12:43;3.67;;;3.30;;
4867;SDS011;2448;48.086;10.862;2023-06-26T07:15:10;4.23;;;3.83;;
4867;SDS011;2448;48.086;10.862;2023-06-26T07:17:35;4.13;;;3.67;;
4867;SDS011;2448;48.086;10.862;2023-06-26T07:20:03;4.03;;;3.63;;
4867;SDS011;2448;48.086;10.862;2023-06-26T07:22:33;4.40;;;3.97;;
4867;SDS011;2448;48.086;10.862;2023-06-26T07:24:58;5.10;;;4.00;;
4867;SDS011;2448;48.086;10.862;2023-06-26T07:27:24;4.87;;;4.13;;
4867;SDS011;2448;48.086;10.862;2023-06-26T07:29:50;3.70;;;3.40;;
4867;SDS011;2448;48.086;10.862;2023-06-26T07:32:15;4.80;;;3.70;;
4867;SDS011;2448;48.086;10.862;2023-06-26T07:34:40;6.10;;;4.33;;
4867;SDS011;2448;48.086;10.862;2023-06-26T07:37:06;4.70;;;4.20;;
4867;SDS011;2448;48.086;10.862;2023-06-26T07:39:32;4.47;;;4.07;;
4867;SDS011;2448;48.086;10.862;2023-06-26T07:41:57;5.47;;;3.60;;
4867;SDS011;2448;48.086;10.862;2023-06-26T07:44:25;3.20;;;2.97;;
4867;SDS011;2448;48.086;10.862;2023-06-26T07:46:51;4.50;;;4.00;;
4867;SDS011;2448;48.086;10.862;2023-06-26T07:49:16;4.23;;;3.83;;
4867;SDS011;2448;48.086;10.862;2023-06-26T07:51:41;4.30;;;3.90;;
4867;SDS011;2448;48.086;10.862;2023-06-26T07:54:07;4.60;;;3.77;;
4867;SDS011;2448;48.086;10.862;2023-06-26T07:56:35;3.60;;;3.30;;
4867;SDS011;2448;48.086;10.862;2023-06-26T07:59:16;3.97;;;3.67;;
4867;SDS011;2448;48.086;10.862;2023-06-26T08:01:42;3.45;;;3.15;;
4867;SDS011;2448;48.086;10.862;2023-06-26T08:04:07;3.80;;;3.47;;
4867;SDS011;2448;48.086;10.862;2023-06-26T08:06:33;6.13;;;3.17;;
4867;SDS011;2448;48.086;10.862;2023-06-26T08:08:58;3.83;;;3.53;;
4867;SDS011;2448;48.086;10.862;2023-06-26T08:11:23;4.50;;;3.10;;
4867;SDS011;2448;48.086;10.862;2023-06-26T08:13:49;3.42;;;3.22;;
4867;SDS011;2448;48.086;10.862;2023-06-26T08:16:14;3.40;;;3.10;;
4867;SDS011;2448;48.086;10.862;2023-06-26T08:18:39;3.55;;;3.22;;
4867;SDS011;2448;48.086;10.862;2023-06-26T08:21:05;3.35;;;3.15;;
4867;SDS011;2448;48.086;10.862;2023-06-26T08:23:30;3.20;;;3.00;;
4867;SDS011;2448;48.086;10.862;2023-06-26T08:25:56;3.08;;;2.88;;
4867;SDS011;2448;48.086;10.862;2023-06-26T08:28:23;3.45;;;3.25;;
4867;SDS011;2448;48.086;10.862;2023-06-26T08:30:49;3.08;;;2.58;;
4867;SDS011;2448;48.086;10.862;2023-06-26T08:33:14;3.05;;;2.85;;
4867;SDS011;2448;48.086;10.862;2023-06-26T08:35:39;4.72;;;2.80;;
4867;SDS011;2448;48.086;10.862;2023-06-26T08:38:05;3.42;;;3.03;;
4867;SDS011;2448;48.086;10.862;2023-06-26T08:40:30;2.70;;;2.58;;
4867;SDS011;2448;48.086;10.862;2023-06-26T08:42:57;7.57;;;2.75;;
4867;SDS011;2448;48.086;10.862;2023-06-26T08:45:22;2.67;;;2.55;;
4867;SDS011;2448;48.086;10.862;2023-06-26T08:47:47;2.88;;;2.67;;
4867;SDS011;2448;48.086;10.862;2023-06-26T08:50:14;2.83;;;2.63;;
4867;SDS011;2448;48.086;10.862;2023-06-26T08:55:13;2.90;;;2.70;;
4867;SDS011;2448;48.086;10.862;2023-06-26T08:57:40;2.90;;;2.67;;
4867;SDS011;2448;48.086;10.862;2023-06-26T09:00:06;2.85;;;2.65;;
4867;SDS011;2448;48.086;10.862;2023-06-26T09:02:34;2.88;;;2.60;;
4867;SDS011;2448;48.086;10.862;2023-06-26T09:04:59;5.43;;;2.70;;
4867;SDS011;2448;48.086;10.862;2023-06-26T09:07:25;3.67;;;3.40;;
4867;SDS011;2448;48.086;10.862;2023-06-26T09:09:50;2.88;;;2.78;;
4867;SDS011;2448;48.086;10.862;2023-06-26T09:12:16;2.83;;;2.70;;
4867;SDS011;2448;48.086;10.862;2023-06-26T09:14:41;3.08;;;2.88;;
4867;SDS011;2448;48.086;10.862;2023-06-26T09:17:07;3.42;;;2.47;;
4867;SDS011;2448;48.086;10.862;2023-06-26T09:19:32;2.95;;;2.75;;
4867;SDS011;2448;48.086;10.862;2023-06-26T09:21:57;3.15;;;2.95;;
4867;SDS011;2448;48.086;10.862;2023-06-26T09:24:23;2.70;;;2.60;;
4867;SDS011;2448;48.086;10.862;2023-06-26T09:26:48;2.58;;;2.47;;
4867;SDS011;2448;48.086;10.862;2023-06-26T09:29:14;25.40;;;4.03;;
4867;SDS011;2448;48.086;10.862;2023-06-26T09:31:40;2.58;;;2.40;;
4867;SDS011;2448;48.086;10.862;2023-06-26T09:34:06;3.53;;;3.33;;
4867;SDS011;2448;48.086;10.862;2023-06-26T09:36:32;3.03;;;2.92;;
4867;SDS011;2448;48.086;10.862;2023-06-26T09:39:04;5.55;;;2.90;;
4867;SDS011;2448;48.086;10.862;2023-06-26T09:41:34;3.22;;;2.30;;
4867;SDS011;2448;48.086;10.862;2023-06-26T09:44:00;2.30;;;2.20;;
4867;SDS011;2448;48.086;10.862;2023-06-26T09:46:26;2.67;;;2.55;;
4867;SDS011;2448;48.086;10.862;2023-06-26T09:49:03;3.58;;;2.40;;
4867;SDS011;2448;48.086;10.862;2023-06-26T09:51:30;3.00;;;2.80;;
4867;SDS011;2448;48.086;10.862;2023-06-26T09:53:56;2.80;;;2.60;;
4867;SDS011;2448;48.086;10.862;2023-06-26T09:56:21;2.63;;;2.53;;
4867;SDS011;2448;48.086;10.862;2023-06-26T09:58:47;3.38;;;2.72;;
4867;SDS011;2448;48.086;10.862;2023-06-26T10:01:14;3.08;;;2.60;;
4867;SDS011;2448;48.086;10.862;2023-06-26T10:03:39;9.77;;;3.08;;
4867;SDS011;2448;48.086;10.862;2023-06-26T10:06:04;2.55;;;2.45;;
4867;SDS011;2448;48.086;10.862;2023-06-26T10:08:31;2.80;;;2.70;;
4867;SDS011;2448;48.086;10.862;2023-06-26T10:10:58;3.38;;;3.17;;
4867;SDS011;2448;48.086;10.862;2023-06-26T10:13:25;3.22;;;2.90;;
4867;SDS011;2448;48.086;10.862;2023-06-26T10:15:51;2.97;;;2.78;;
4867;SDS011;2448;48.086;10.862;2023-06-26T10:18:18;3.08;;;2.80;;
4867;SDS011;2448;48.086;10.862;2023-06-26T10:20:47;2.92;;;2.72;;
4867;SDS011;2448;48.086;10.862;2023-06-26T10:23:12;4.85;;;3.30;;
4867;SDS011;2448;48.086;10.862;2023-06-26T10:25:39;3.63;;;3.40;;
4867;SDS011;2448;48.086;10.862;2023-06-26T10:28:05;3.53;;;3.22;;
4867;SDS011;2448;48.086;10.862;2023-06-26T10:30:33;3.47;;;3.25;;
4867;SDS011;2448;48.086;10.862;2023-06-26T10:32:59;3.33;;;3.13;;
4867;SDS011;2448;48.086;10.862;2023-06-26T10:35:25;3.78;;;3.47;;
4867;SDS011;2448;48.086;10.862;2023-06-26T10:37:52;3.17;;;2.97;;
4867;SDS011;2448;48.086;10.862;2023-06-26T10:40:25;11.27;;;3.40;;
4867;SDS011;2448;48.086;10.862;2023-06-26T10:42:51;4.60;;;3.10;;
4867;SDS011;2448;48.086;10.862;2023-06-26T10:45:19;3.35;;;3.00;;
4867;SDS011;2448;48.086;10.862;2023-06-26T10:47:48;2.88;;;2.78;;
4867;SDS011;2448;48.086;10.862;2023-06-26T10:50:22;3.03;;;2.83;;
4867;SDS011;2448;48.086;10.862;2023-06-26T10:55:32;4.32;;;3.00;;
4867;SDS011;2448;48.086;10.862;2023-06-26T10:57:57;2.90;;;2.75;;
4867;SDS011;2448;48.086;10.862;2023-06-26T11:00:23;2.95;;;2.75;;
4867;SDS011;2448;48.086;10.862;2023-06-26T11:02:51;3.50;;;2.90;;
4867;SDS011;2448;48.086;10.862;2023-06-26T11:05:26;3.17;;;2.78;;
4867;SDS011;2448;48.086;10.862;2023-06-26T11:08:08;3.20;;;3.00;;
4867;SDS011;2448;48.086;10.862;2023-06-26T11:10:52;3.28;;;3.08;;
4867;SDS011;2448;48.086;10.862;2023-06-26T11:13:19;3.28;;;3.08;;
4867;SDS011;2448;48.086;10.862;2023-06-26T11:15:45;2.95;;;2.75;;
4867;SDS011;2448;48.086;10.862;2023-06-26T11:18:10;3.03;;;2.83;;
4867;SDS011;2448;48.086;10.862;2023-06-26T11:20:37;3.05;;;2.85;;
4867;SDS011;2448;48.086;10.862;2023-06-26T11:23:03;3.45;;;3.25;;
4867;SDS011;2448;48.086;10.862;2023-06-26T11:25:29;6.28;;;3.10;;
4867;SDS011;2448;48.086;10.862;2023-06-26T11:27:55;3.55;;;3.28;;
4867;SDS011;2448;48.086;10.862;2023-06-26T11:30:24;3.60;;;3.30;;
4867;SDS011;2448;48.086;10.862;2023-06-26T11:32:50;3.65;;;3.35;;
4867;SDS011;2448;48.086;10.862;2023-06-26T11:35:27;3.83;;;3.53;;
4867;SDS011;2448;48.086;10.862;2023-06-26T11:37:57;3.53;;;3.33;;
4867;SDS011;2448;48.086;10.862;2023-06-26T11:40:25;4.18;;;3.78;;
4867;SDS011;2448;48.086;10.862;2023-06-26T11:42:59;3.70;;;3.50;;
4867;SDS011;2448;48.086;10.862;2023-06-26T11:45:27;3.72;;;3.42;;
4867;SDS011;2448;48.086;10.862;2023-06-26T11:47:54;6.20;;;4.00;;
4867;SDS011;2448;48.086;10.862;2023-06-26T11:50:19;3.20;;;3.00;;
4867;SDS011;2448;48.086;10.862;2023-06-26T11:52:45;3.67;;;3.38;;
4867;SDS011;2448;48.086;10.862;2023-06-26T11:55:10;3.60;;;3.35;;
4867;SDS011;2448;48.086;10.862;2023-06-26T11:57:36;3.53;;;3.25;;
4867;SDS011;2448;48.086;10.862;2023-06-26T12:00:11;3.85;;;3.30;;
4867;SDS011;2448;48.086;10.862;2023-06-26T12:02:37;6.03;;;3.35;;
4867;SDS011;2448;48.086;10.862;2023-06-26T12:05:03;3.70;;;3.40;;
4867;SDS011;2448;48.086;10.862;2023-06-26T12:07:29;4.00;;;3.70;;
4867;SDS011;2448;48.086;10.862;2023-06-26T12:09:56;10.48;;;3.50;;
4867;SDS011;2448;48.086;10.862;2023-06-26T12:12:23;4.00;;;3.60;;
4867;SDS011;2448;48.086;10.862;2023-06-26T12:14:49;4.05;;;3.75;;
4867;SDS011;2448;48.086;10.862;2023-06-26T12:17:15;4.38;;;3.97;;
4867;SDS011;2448;48.086;10.862;2023-06-26T12:19:45;4.18;;;3.25;;
4867;SDS011;2448;48.086;10.862;2023-06-26T12:22:13;3.80;;;3.53;;
4867;SDS011;2448;48.086;10.862;2023-06-26T12:24:38;3.67;;;3.38;;
4867;SDS011;2448;48.086;10.862;2023-06-26T12:27:07;4.00;;;3.70;;
4867;SDS011;2448;48.086;10.862;2023-06-26T12:29:33;4.97;;;3.70;;
4867;SDS011;2448;48.086;10.862;2023-06-26T12:31:59;5.47;;;3.70;;
4867;SDS011;2448;48.086;10.862;2023-06-26T12:34:31;3.63;;;3.38;;
4867;SDS011;2448;48.086;10.862;2023-06-26T12:37:01;3.72;;;3.42;;
4867;SDS011;2448;48.086;10.862;2023-06-26T12:39:27;4.05;;;3.58;;
4867;SDS011;2448;48.086;10.862;2023-06-26T12:41:53;5.70;;;3.95;;
4867;SDS011;2448;48.086;10.862;2023-06-26T12:44:20;3.97;;;3.67;;
4867;SDS011;2448;48.086;10.862;2023-06-26T12:46:46;3.75;;;3.45;;
4867;SDS011;2448;48.086;10.862;2023-06-26T12:49:12;4.30;;;3.60;;
4867;SDS011;2448;48.086;10.862;2023-06-26T12:51:37;8.02;;;4.07;;
4867;SDS011;2448;48.086;10.862;2023-06-26T12:54:03;7.22;;;4.05;;
4867;SDS011;2448;48.086;10.862;2023-06-26T12:56:28;8.98;;;4.38;;
4867;SDS011;2448;48.086;10.862;2023-06-26T12:58:53;4.35;;;4.05;;
4867;SDS011;2448;48.086;10.862;2023-06-26T13:01:19;8.43;;;3.85;;
4867;SDS011;2448;48.086;10.862;2023-06-26T13:03:45;5.00;;;4.50;;
4867;SDS011;2448;48.086;10.862;2023-06-26T13:06:10;5.78;;;3.75;;
4867;SDS011;2448;48.086;10.862;2023-06-26T13:08:36;3.70;;;3.40;;
4867;SDS011;2448;48.086;10.862;2023-06-26T13:11:02;3.38;;;3.08;;
4867;SDS011;2448;48.086;10.862;2023-06-26T13:13:27;3.95;;;3.50;;
4867;SDS011;2448;48.086;10.862;2023-06-26T13:15:53;4.20;;;3.58;;
4867;SDS011;2448;48.086;10.862;2023-06-26T13:18:18;6.80;;;3.70;;
4867;SDS011;2448;48.086;10.862;2023-06-26T13:20:43;3.83;;;3.47;;
4867;SDS011;2448;48.086;10.862;2023-06-26T13:23:09;4.07;;;3.78;;
4867;SDS011;2448;48.086;10.862;2023-06-26T13:25:34;4.07;;;3.67;;
4867;SDS011;2448;48.086;10.862;2023-06-26T13:28:00;3.65;;;3.35;;
4867;SDS011;2448;48.086;10.862;2023-06-26T13:30:25;3.60;;;3.40;;
4867;SDS011;2448;48.086;10.862;2023-06-26T13:32:50;12.95;;;4.18;;
4867;SDS011;2448;48.086;10.862;2023-06-26T13:35:16;6.18;;;3.95;;
4867;SDS011;2448;48.086;10.862;2023-06-26T13:37:41;4.05;;;3.75;;
4867;SDS011;2448;48.086;10.862;2023-06-26T13:40:08;3.72;;;3.50;;
4867;SDS011;2448;48.086;10.862;2023-06-26T13:42:33;3.97;;;3.67;;
4867;SDS011;2448;48.086;10.862;2023-06-26T13:44:58;4.78;;;3.53;;
4867;SDS011;2448;48.086;10.862;2023-06-26T13:47:24;3.53;;;3.22;;
4867;SDS011;2448;48.086;10.862;2023-06-26T13:49:49;3.83;;;3.53;;
4867;SDS011;2448;48.086;10.862;2023-06-26T13:52:15;5.40;;;3.65;;
4867;SDS011;2448;48.086;10.862;2023-06-26T13:54:40;3.72;;;3.45;;
4867;SDS011;2448;48.086;10.862;2023-06-26T13:57:06;4.60;;;4.07;;
4867;SDS011;2448;48.086;10.862;2023-06-26T13:59:32;4.82;;;3.58;;
4867;SDS011;2448;48.086;10.862;2023-06-26T14:01:57;6.18;;;4.07;;
4867;SDS011;2448;48.086;10.862;2023-06-26T14:04:24;4.13;;;3.77;;
4867;SDS011;2448;48.086;10.862;2023-06-26T14:06:49;4.07;;;3.67;;
4867;SDS011;2448;48.086;10.862;2023-06-26T14:09:15;3.88;;;3.55;;
4867;SDS011;2448;48.086;10.862;2023-06-26T14:11:40;4.07;;;3.60;;
4867;SDS011;2448;48.086;10.862;2023-06-26T14:14:05;4.50;;;4.13;;
4867;SDS011;2448;48.086;10.862;2023-06-26T14:16:31;4.30;;;3.90;;
4867;SDS011;2448;48.086;10.862;2023-06-26T14:18:57;4.05;;;3.67;;
4867;SDS011;2448;48.086;10.862;2023-06-26T14:21:22;6.40;;;3.97;;
4867;SDS011;2448;48.086;10.862;2023-06-26T14:23:48;6.25;;;4.30;;
4867;SDS011;2448;48.086;10.862;2023-06-26T14:26:13;4.45;;;4.00;;
4867;SDS011;2448;48.086;10.862;2023-06-26T14:28:38;4.03;;;3.58;;
4867;SDS011;2448;48.086;10.862;2023-06-26T14:31:04;5.20;;;4.05;;
4867;SDS011;2448;48.086;10.862;2023-06-26T14:33:30;4.75;;;4.05;;
4867;SDS011;2448;48.086;10.862;2023-06-26T14:35:55;4.17;;;3.70;;
4867;SDS011;2448;48.086;10.862;2023-06-26T14:38:20;5.45;;;4.45;;
4867;SDS011;2448;48.086;10.862;2023-06-26T14:40:46;4.43;;;4.03;;
4867;SDS011;2448;48.086;10.862;2023-06-26T14:43:11;5.20;;;4.27;;
4867;SDS011;2448;48.086;10.862;2023-06-26T14:45:36;4.63;;;4.00;;
4867;SDS011;2448;48.086;10.862;2023-06-26T14:48:02;6.80;;;3.80;;
4867;SDS011;2448;48.086;10.862;2023-06-26T14:50:27;4.10;;;3.80;;
4867;SDS011;2448;48.086;10.862;2023-06-26T14:52:53;6.03;;;3.90;;
4867;SDS011;2448;48.086;10.862;2023-06-26T14:55:18;54.50;;;4.20;;
4867;SDS011;2448;48.086;10.862;2023-06-26T14:57:44;3.93;;;3.60;;
4867;SDS011;2448;48.086;10.862;2023-06-26T15:00:10;5.40;;;4.20;;
4867;SDS011;2448;48.086;10.862;2023-06-26T15:02:35;3.93;;;3.63;;
4867;SDS011;2448;48.086;10.862;2023-06-26T15:05:01;5.40;;;3.67;;
4867;SDS011;2448;48.086;10.862;2023-06-26T15:07:26;4.80;;;4.20;;